createdAt,value
2023-04-22T00:01:18.196Z,49.59
2023-04-22T00:05:47.082Z,49.64
2023-04-22T00:23:07.375Z,49.90
2023-04-22T00:44:54.352Z,50.26
2023-04-22T00:49:22.810Z,50.52
2023-04-22T00:53:52.695Z,50.48
2023-04-22T01:11:07.128Z,51.05
2023-04-22T01:15:29.061Z,51.09
2023-04-22T01:37:15.867Z,51.50
2023-04-22T01:41:44.818Z,51.73
2023-04-22T01:46:13.764Z,51.51
2023-04-22T01:50:31.570Z,51.93
2023-04-22T02:16:32.154Z,52.67
2023-04-22T02:21:01.414Z,52.88
2023-04-22T02:25:30.118Z,53.04
2023-04-22T02:47:15.829Z,53.37
2023-04-22T02:51:45.177Z,53.60
2023-04-22T03:08:49.719Z,53.67
2023-04-22T03:13:18.212Z,54.01
2023-04-22T03:17:39.228Z,53.96
2023-04-22T03:43:28.653Z,54.44
2023-04-22T03:47:57.693Z,54.20
2023-04-22T03:52:16.967Z,54.62
2023-04-22T04:09:28.960Z,54.69
2023-04-22T04:13:58.258Z,54.54
2023-04-22T04:18:20.377Z,54.62
2023-04-22T04:22:42.165Z,54.74
2023-04-22T04:27:10.925Z,54.52
2023-04-22T04:45:27.967Z,53.52
2023-04-22T04:49:56.153Z,53.43
2023-04-22T05:06:57.384Z,52.78
2023-04-22T05:11:26.137Z,52.56
2023-04-22T05:15:37.993Z,52.33
2023-04-22T05:32:35.460Z,51.59
2023-04-22T05:37:04.458Z,51.48
2023-04-22T05:50:28.203Z,51.29
2023-04-22T05:54:57.429Z,50.61
2023-04-22T05:59:26.272Z,50.55
2023-04-22T06:03:55.264Z,50.32
2023-04-22T06:08:16.243Z,50.25
2023-04-22T06:12:44.826Z,50.08
2023-04-22T06:47:38.098Z,48.58
2023-04-22T06:52:06.992Z,48.22
2023-04-22T07:12:56.011Z,46.99
2023-04-22T07:16:40.722Z,46.79
2023-04-22T07:21:10.071Z,46.54
2023-04-22T07:25:34.169Z,46.52
2023-04-22T07:47:00.841Z,45.77
2023-04-22T07:51:30.055Z,45.70
2023-04-22T07:55:43.014Z,45.58
2023-04-22T08:00:13.052Z,45.38
2023-04-22T08:04:34.109Z,45.03
2023-04-22T08:09:04.353Z,44.79
2023-04-22T08:30:11.495Z,43.65
2023-04-22T08:34:43.954Z,43.42
2023-04-22T08:38:55.757Z,43.27
2023-04-22T08:43:12.993Z,43.22
2023-04-22T09:13:42.859Z,41.87
2023-04-22T09:18:14.732Z,41.49
2023-04-22T09:39:48.634Z,40.12
2023-04-22T09:44:09.590Z,39.60
2023-04-22T09:48:43.473Z,39.77
2023-04-22T09:53:00.363Z,39.55
2023-04-22T09:57:29.239Z,39.47
2023-04-22T10:31:14.471Z,36.02
2023-04-22T10:35:50.769Z,35.56
2023-04-22T10:40:12.983Z,35.19
2023-04-22T11:06:32.402Z,33.80
2023-04-22T11:10:41.527Z,33.53
2023-04-22T11:14:53.644Z,33.16
2023-04-22T11:19:04.461Z,33.00
2023-04-22T11:23:07.575Z,32.98
2023-04-22T11:48:15.893Z,31.82
2023-04-22T11:52:53.357Z,31.70
2023-04-22T11:56:53.502Z,31.28
2023-04-22T12:01:15.132Z,31.03
2023-04-22T12:05:33.742Z,30.72
2023-04-22T12:10:07.359Z,30.36
2023-04-22T12:14:32.349Z,30.30
2023-04-22T12:19:13.534Z,30.13
2023-04-22T12:23:19.850Z,30.17
2023-04-22T12:27:26.611Z,29.98
2023-04-22T12:53:26.481Z,29.33
2023-04-22T12:57:46.258Z,29.01
2023-04-22T13:02:15.482Z,29.17
2023-04-22T13:06:33.819Z,28.92
2023-04-22T13:10:55.699Z,29.03
2023-04-22T13:32:28.432Z,28.04
2023-04-22T13:36:57.689Z,27.66
2023-04-22T13:41:06.193Z,27.68
2023-04-22T13:49:13.876Z,27.20
2023-04-22T13:53:42.606Z,27.32
2023-04-22T13:57:35.535Z,27.36
2023-04-22T14:01:22.223Z,27.04
2023-04-22T14:04:18.737Z,27.16
2023-04-22T14:07:51.151Z,27.01
2023-04-22T14:11:22.468Z,27.23
2023-04-22T14:15:34.039Z,27.06
2023-04-22T14:20:02.716Z,27.08
2023-04-22T14:23:38.005Z,26.98
2023-04-22T14:27:59.028Z,26.75
2023-04-22T14:32:28.140Z,26.76
2023-04-22T14:36:43.376Z,26.75
2023-04-22T14:40:52.170Z,26.91
2023-04-22T14:45:10.079Z,26.88
2023-04-22T14:49:19.309Z,26.61
2023-04-22T15:26:49.541Z,26.40
2023-04-22T15:30:58.163Z,26.39
2023-04-22T15:35:05.678Z,26.20
2023-04-22T16:00:44.182Z,26.36
2023-04-22T16:05:13.788Z,26.39
2023-04-22T16:09:35.255Z,26.47
2023-04-22T16:26:55.065Z,27.04
2023-04-22T16:31:25.138Z,26.98
2023-04-22T16:35:48.250Z,27.16
2023-04-22T16:57:34.958Z,28.98
2023-04-22T17:02:03.896Z,29.58
2023-04-22T17:06:32.989Z,29.89
2023-04-22T17:11:02.384Z,30.09
2023-04-22T17:15:32.569Z,30.42
2023-04-22T17:32:52.737Z,31.41
2023-04-22T17:37:21.712Z,31.83
2023-04-22T17:41:51.756Z,32.24
2023-04-22T18:03:40.769Z,33.90
2023-04-22T18:08:10.318Z,34.41
2023-04-22T18:25:30.995Z,35.69
2023-04-22T18:29:59.884Z,36.01
2023-04-22T18:51:23.708Z,37.24
2023-04-22T18:55:52.710Z,37.57
2023-04-22T19:00:21.948Z,37.77
2023-04-22T19:04:52.185Z,38.06
2023-04-22T19:22:18.382Z,38.77
2023-04-22T19:26:47.335Z,39.14
2023-04-22T19:31:16.851Z,39.43
2023-04-22T19:53:07.528Z,40.10
2023-04-22T19:57:37.680Z,40.44
2023-04-22T20:14:57.725Z,41.23
2023-04-22T20:19:28.423Z,41.55
2023-04-22T20:41:14.340Z,42.56
2023-04-22T20:45:35.628Z,42.76
2023-04-22T20:50:04.496Z,43.00
2023-04-22T20:54:32.939Z,43.13
2023-04-22T20:58:41.470Z,43.04
2023-04-22T21:16:01.981Z,44.03
2023-04-22T21:34:30.436Z,44.86
2023-04-22T21:38:59.087Z,44.87
2023-04-22T21:43:29.095Z,45.24
2023-04-22T22:00:50.227Z,45.71
2023-04-22T22:05:19.498Z,45.79
2023-04-22T22:32:43.482Z,47.06
2023-04-22T22:37:02.063Z,47.07
2023-04-22T22:41:31.703Z,47.51
2023-04-22T22:58:42.819Z,48.10
2023-04-22T23:03:11.670Z,48.30
2023-04-22T23:20:36.801Z,48.65
2023-04-22T23:25:05.836Z,48.93
2023-04-22T23:42:16.666Z,49.15
2023-04-22T23:46:45.485Z,49.38
